sensor_id;sensor_type;location;lat;lon;timestamp;temperature;humidity
8736;DHT22;4404;49.308;12.178;2023-03-01T08:18:50;2.40;99.90
8736;DHT22;4404;49.308;12.178;2023-03-01T08:24:52;3.40;98.70
8736;DHT22;4404;49.308;12.178;2023-03-01T08:30:56;3.60;97.90
8736;DHT22;4404;49.308;12.178;2023-03-01T08:36:59;3.60;98.20
8736;DHT22;4404;49.308;12.178;2023-03-01T08:43:01;3.70;97.60
8736;DHT22;4404;49.308;12.178;2023-03-01T08:49:04;4.00;97.70
8736;DHT22;4404;49.308;12.178;2023-03-01T08:55:09;4.20;97.50
8736;DHT22;4404;49.308;12.178;2023-03-01T09:01:13;4.50;96.90
8736;DHT22;4404;49.308;12.178;2023-03-01T09:07:17;4.70;96.30
8736;DHT22;4404;49.308;12.178;2023-03-01T09:13:20;5.00;95.20
8736;DHT22;4404;49.308;12.178;2023-03-01T09:19:24;5.20;94.60
8736;DHT22;4404;49.308;12.178;2023-03-01T09:25:26;5.50;94.00
8736;DHT22;4404;49.308;12.178;2023-03-01T09:31:30;5.70;93.90
8736;DHT22;4404;49.308;12.178;2023-03-01T09:37:32;5.90;92.50
8736;DHT22;4404;49.308;12.178;2023-03-01T09:43:41;6.10;92.50
8736;DHT22;4404;49.308;12.178;2023-03-01T09:49:52;7.20;92.80
8736;DHT22;4404;49.308;12.178;2023-03-01T09:56:05;6.70;90.60
8736;DHT22;4404;49.308;12.178;2023-03-01T10:02:25;7.00;90.30
8736;DHT22;4404;49.308;12.178;2023-03-01T10:08:38;7.20;90.00
8736;DHT22;4404;49.308;12.178;2023-03-01T10:14:49;7.50;90.40
8736;DHT22;4404;49.308;12.178;2023-03-01T10:20:58;7.70;89.20
8736;DHT22;4404;49.308;12.178;2023-03-01T10:27:05;7.90;85.60
8736;DHT22;4404;49.308;12.178;2023-03-01T10:33:16;8.00;86.50
8736;DHT22;4404;49.308;12.178;2023-03-01T10:39:22;8.20;86.90
8736;DHT22;4404;49.308;12.178;2023-03-01T10:45:35;8.40;87.20
8736;DHT22;4404;49.308;12.178;2023-03-01T10:51:39;8.70;85.30
8736;DHT22;4404;49.308;12.178;2023-03-01T10:57:42;8.90;85.70
8736;DHT22;4404;49.308;12.178;2023-03-01T11:04:09;9.20;86.00
8736;DHT22;4404;49.308;12.178;2023-03-01T11:10:17;9.50;83.30
8736;DHT22;4404;49.308;12.178;2023-03-01T11:16:26;9.70;83.60
8736;DHT22;4404;49.308;12.178;2023-03-01T11:22:41;9.80;81.10
8736;DHT22;4404;49.308;12.178;2023-03-01T11:28:51;9.90;80.50
8736;DHT22;4404;49.308;12.178;2023-03-01T11:35:03;10.10;80.60
8736;DHT22;4404;49.308;12.178;2023-03-01T11:41:15;10.40;78.60
8736;DHT22;4404;49.308;12.178;2023-03-01T11:47:29;10.70;78.70
8736;DHT22;4404;49.308;12.178;2023-03-01T11:54:00;10.90;79.20
8736;DHT22;4404;49.308;12.178;2023-03-01T12:00:34;11.30;78.90
8736;DHT22;4404;49.308;12.178;2023-03-01T12:06:57;11.50;78.70
8736;DHT22;4404;49.308;12.178;2023-03-01T12:19:58;11.60;76.00
8736;DHT22;4404;49.308;12.178;2023-03-01T12:26:12;11.40;76.70
8736;DHT22;4404;49.308;12.178;2023-03-01T12:32:42;11.30;77.40
8736;DHT22;4404;49.308;12.178;2023-03-01T12:38:59;11.20;76.50
8736;DHT22;4404;49.308;12.178;2023-03-01T12:45:31;11.10;77.00
8736;DHT22;4404;49.308;12.178;2023-03-01T12:51:38;11.00;77.00
8736;DHT22;4404;49.308;12.178;2023-03-01T12:57:47;11.00;76.50
8736;DHT22;4404;49.308;12.178;2023-03-01T13:04:20;10.90;77.70
8736;DHT22;4404;49.308;12.178;2023-03-01T13:10:31;10.80;77.70
8736;DHT22;4404;49.308;12.178;2023-03-01T13:16:43;10.80;78.00
8736;DHT22;4404;49.308;12.178;2023-03-01T13:23:00;10.90;78.60
8736;DHT22;4404;49.308;12.178;2023-03-01T13:29:26;10.90;78.90
8736;DHT22;4404;49.308;12.178;2023-03-01T13:35:50;10.70;77.30
8736;DHT22;4404;49.308;12.178;2023-03-01T13:41:58;10.70;78.20
8736;DHT22;4404;49.308;12.178;2023-03-01T13:48:15;10.70;79.20
8736;DHT22;4404;49.308;12.178;2023-03-01T13:54:25;10.70;79.00
8736;DHT22;4404;49.308;12.178;2023-03-01T14:00:31;10.70;78.80
8736;DHT22;4404;49.308;12.178;2023-03-01T14:06:36;10.60;80.00
8736;DHT22;4404;49.308;12.178;2023-03-01T14:27:12;10.50;79.50
8736;DHT22;4404;49.308;12.178;2023-03-01T14:33:29;10.50;80.50
8736;DHT22;4404;49.308;12.178;2023-03-01T14:46:54;10.30;80.30
8736;DHT22;4404;49.308;12.178;2023-03-01T14:52:59;10.20;80.70
8736;DHT22;4404;49.308;12.178;2023-03-01T14:59:04;10.10;80.30
8736;DHT22;4404;49.308;12.178;2023-03-01T15:05:09;10.10;80.80
8736;DHT22;4404;49.308;12.178;2023-03-01T15:11:19;10.10;80.90
8736;DHT22;4404;49.308;12.178;2023-03-01T15:17:29;9.90;83.00
8736;DHT22;4404;49.308;12.178;2023-03-01T15:23:35;9.90;82.90
8736;DHT22;4404;49.308;12.178;2023-03-01T15:29:39;9.80;83.00
8736;DHT22;4404;49.308;12.178;2023-03-01T15:35:42;9.70;83.30
8736;DHT22;4404;49.308;12.178;2023-03-01T15:41:48;9.50;83.50
8736;DHT22;4404;49.308;12.178;2023-03-01T15:47:53;9.40;84.10
8736;DHT22;4404;49.308;12.178;2023-03-01T15:54:00;9.40;84.50
8736;DHT22;4404;49.308;12.178;2023-03-01T16:00:09;9.10;85.20
8736;DHT22;4404;49.308;12.178;2023-03-01T16:06:14;9.00;84.80
8736;DHT22;4404;49.308;12.178;2023-03-01T16:12:16;8.90;85.40
8736;DHT22;4404;49.308;12.178;2023-03-01T16:18:22;8.70;85.10
8736;DHT22;4404;49.308;12.178;2023-03-01T16:24:24;8.60;86.50
8736;DHT22;4404;49.308;12.178;2023-03-01T16:30:27;8.60;87.00
8736;DHT22;4404;49.308;12.178;2023-03-01T16:36:31;8.50;86.80
8736;DHT22;4404;49.308;12.178;2023-03-01T16:42:34;8.30;86.60
8736;DHT22;4404;49.308;12.178;2023-03-01T16:48:37;8.10;87.80
8736;DHT22;4404;49.308;12.178;2023-03-01T16:54:42;8.10;87.50
8736;DHT22;4404;49.308;12.178;2023-03-01T17:00:44;8.00;87.50
